createdAt,value
2018-04-11T00:01:04.126Z,1.90
2018-04-11T00:03:30.357Z,1.90
2018-04-11T00:05:57.309Z,1.97
2018-04-11T00:08:23.557Z,1.70
2018-04-11T00:10:50.128Z,1.77
2018-04-11T00:13:16.600Z,1.60
2018-04-11T00:15:42.850Z,1.83
2018-04-11T00:18:09.019Z,1.70
2018-04-11T00:20:35.642Z,1.50
2018-04-11T00:23:02.289Z,1.90
2018-04-11T00:25:29.396Z,1.77
2018-04-11T00:27:55.561Z,1.90
2018-04-11T00:30:21.797Z,1.97
2018-04-11T00:32:48.778Z,2.17
2018-04-11T00:35:15.008Z,1.83
2018-04-11T00:37:41.196Z,1.83
2018-04-11T00:40:08.309Z,1.87
2018-04-11T00:42:34.536Z,1.70
2018-04-11T00:45:00.740Z,1.60
2018-04-11T00:47:26.996Z,1.90
2018-04-11T00:49:53.223Z,1.87
2018-04-11T00:52:19.536Z,1.67
2018-04-11T00:54:45.778Z,1.90
2018-04-11T00:57:12.010Z,1.83
2018-04-11T00:59:38.179Z,1.80
2018-04-11T01:02:04.363Z,2.10
2018-04-11T01:04:30.503Z,1.87
2018-04-11T01:06:56.706Z,2.00
2018-04-11T01:09:22.873Z,1.67
2018-04-11T01:11:49.076Z,2.10
2018-04-11T01:14:15.275Z,2.10
2018-04-11T01:16:41.445Z,2.10
2018-04-11T01:19:07.694Z,2.07
2018-04-11T01:21:33.885Z,2.00
2018-04-11T01:24:00.069Z,1.83
2018-04-11T01:26:33.101Z,2.20
2018-04-11T01:28:59.318Z,2.20
2018-04-11T01:31:25.799Z,2.07
2018-04-11T01:33:52.388Z,2.00
2018-04-11T01:36:18.614Z,1.87
2018-04-11T01:38:44.840Z,2.30
2018-04-11T01:41:11.589Z,2.40
2018-04-11T01:43:37.787Z,2.40
2018-04-11T01:46:03.974Z,2.10
2018-04-11T01:48:30.173Z,2.10
2018-04-11T01:50:57.170Z,2.37
2018-04-11T01:53:23.411Z,2.77
2018-04-11T01:55:49.565Z,2.50
2018-04-11T01:58:15.710Z,2.10
2018-04-11T02:00:41.837Z,2.60
2018-04-11T02:03:08.048Z,2.30
2018-04-11T02:05:34.280Z,2.13
2018-04-11T02:08:01.138Z,2.10
2018-04-11T02:10:27.896Z,2.27
2018-04-11T02:12:54.233Z,2.10
2018-04-11T02:15:21.822Z,2.70
2018-04-11T02:17:49.127Z,2.27
2018-04-11T02:20:19.583Z,2.10
2018-04-11T02:22:46.273Z,2.43
2018-04-11T02:25:12.820Z,2.50
2018-04-11T02:27:40.247Z,2.30
2018-04-11T02:30:07.239Z,2.20
2018-04-11T02:32:34.307Z,2.50
2018-04-11T02:35:00.552Z,2.30
2018-04-11T02:37:26.707Z,2.07
2018-04-11T02:39:52.847Z,2.63
2018-04-11T02:42:19.051Z,2.40
2018-04-11T02:44:45.364Z,2.60
2018-04-11T02:47:11.867Z,2.43
2018-04-11T02:49:38.070Z,2.63
2018-04-11T02:52:04.301Z,2.40
2018-04-11T02:54:30.893Z,2.23
2018-04-11T02:56:57.085Z,2.20
2018-04-11T02:59:23.390Z,2.37
2018-04-11T03:01:49.732Z,2.47
2018-04-11T03:04:16.029Z,2.57
2018-04-11T03:06:42.226Z,2.50
2018-04-11T03:09:08.445Z,2.53
2018-04-11T03:11:34.813Z,2.77
2018-04-11T03:14:01.310Z,2.87
2018-04-11T03:16:27.581Z,2.83
2018-04-11T03:18:53.810Z,2.60
2018-04-11T03:21:20.347Z,2.30
2018-04-11T03:23:46.571Z,2.63
2018-04-11T03:26:12.865Z,2.70
2018-04-11T03:28:39.887Z,2.27
2018-04-11T03:31:06.365Z,2.63
2018-04-11T03:33:32.880Z,2.43
2018-04-11T03:35:59.322Z,2.57
2018-04-11T03:38:25.615Z,2.70
2018-04-11T03:40:52.230Z,3.00
2018-04-11T03:43:20.075Z,2.53
2018-04-11T03:45:46.663Z,2.70
2018-04-11T03:48:13.329Z,2.47
2018-04-11T03:50:39.511Z,2.53
2018-04-11T03:53:06.494Z,2.93
2018-04-11T03:55:33.493Z,2.63
2018-04-11T03:57:59.749Z,3.00
2018-04-11T04:00:25.973Z,3.00
2018-04-11T04:02:53.035Z,2.73
2018-04-11T04:05:19.289Z,3.00
2018-04-11T04:07:45.570Z,3.23
2018-04-11T04:10:11.763Z,3.00
2018-04-11T04:12:38.012Z,3.60
2018-04-11T04:15:16.677Z,2.93
2018-04-11T04:17:55.641Z,3.10
2018-04-11T04:20:31.946Z,2.90
2018-04-11T04:22:58.201Z,2.53
2018-04-11T04:25:25.697Z,3.13
2018-04-11T04:27:51.919Z,2.97
2018-04-11T04:30:18.071Z,2.97
2018-04-11T04:32:44.452Z,3.00
2018-04-11T04:35:10.753Z,2.97
2018-04-11T04:37:37.756Z,2.70
2018-04-11T04:40:03.972Z,2.97
2018-04-11T04:42:30.169Z,2.50
2018-04-11T04:44:56.294Z,2.73
2018-04-11T04:47:23.281Z,2.60
2018-04-11T04:49:49.505Z,2.87
2018-04-11T04:52:15.717Z,2.93
2018-04-11T04:54:42.644Z,3.17
2018-04-11T04:57:08.825Z,3.10
2018-04-11T04:59:35.008Z,2.77
2018-04-11T05:02:01.249Z,3.03
2018-04-11T05:04:27.401Z,3.00
2018-04-11T05:06:54.330Z,3.37
2018-04-11T05:09:21.245Z,3.17
2018-04-11T05:11:47.411Z,3.37
2018-04-11T05:14:13.681Z,3.07
2018-04-11T05:16:39.968Z,2.97
2018-04-11T05:19:06.142Z,3.23
2018-04-11T05:21:32.359Z,3.20
2018-04-11T05:23:59.331Z,3.90
2018-04-11T05:26:26.275Z,3.17
2018-04-11T05:28:53.165Z,2.80
2018-04-11T05:31:19.411Z,3.50
2018-04-11T05:33:45.599Z,3.50
2018-04-11T05:36:12.466Z,3.90
2018-04-11T05:38:38.634Z,3.57
2018-04-11T05:41:04.809Z,3.60
2018-04-11T05:43:30.982Z,3.80
2018-04-11T05:45:57.151Z,3.70
2018-04-11T05:48:23.299Z,4.07
2018-04-11T05:50:49.431Z,3.73
2018-04-11T05:53:16.443Z,3.70
2018-04-11T05:55:42.614Z,3.73
2018-04-11T05:58:08.797Z,3.70
2018-04-11T06:00:34.933Z,3.70
2018-04-11T06:03:01.078Z,4.00
2018-04-11T06:05:27.236Z,4.17
2018-04-11T06:07:53.426Z,4.00
2018-04-11T06:10:19.693Z,3.97
2018-04-11T06:12:45.859Z,3.60
2018-04-11T06:15:12.054Z,4.50
2018-04-11T06:17:38.452Z,3.97
2018-04-11T06:20:04.676Z,4.13
2018-04-11T06:22:30.870Z,4.40
2018-04-11T06:24:57.036Z,4.30
2018-04-11T06:27:23.246Z,4.47
2018-04-11T06:29:49.445Z,4.87
2018-04-11T06:32:15.644Z,3.77
2018-04-11T06:34:41.740Z,4.23
2018-04-11T06:37:07.925Z,4.30
2018-04-11T06:39:34.272Z,4.17
2018-04-11T06:42:00.457Z,4.30
2018-04-11T06:44:26.622Z,4.27
2018-04-11T06:46:52.766Z,4.23
2018-04-11T06:49:18.892Z,4.83
2018-04-11T06:51:45.160Z,4.57
2018-04-11T06:54:11.294Z,4.63
2018-04-11T06:56:37.446Z,4.37
2018-04-11T06:59:03.585Z,4.47
2018-04-11T07:01:29.719Z,5.17
2018-04-11T07:03:56.686Z,4.67
2018-04-11T07:06:23.544Z,4.53
2018-04-11T07:08:49.690Z,4.53
2018-04-11T07:11:15.874Z,5.13
2018-04-11T07:13:42.031Z,4.97
2018-04-11T07:16:08.169Z,4.43
2018-04-11T07:18:34.800Z,4.63
2018-04-11T07:21:01.050Z,4.47
2018-04-11T07:23:27.220Z,4.47
2018-04-11T07:25:53.352Z,4.37
2018-04-11T07:28:19.575Z,4.57
2018-04-11T07:30:45.720Z,4.47
2018-04-11T07:33:11.889Z,4.80
2018-04-11T07:35:38.050Z,4.87
2018-04-11T07:38:04.996Z,4.30
2018-04-11T07:40:31.176Z,4.70
2018-04-11T07:42:57.381Z,5.10
2018-04-11T07:45:23.571Z,4.10
2018-04-11T07:47:49.721Z,4.90
2018-04-11T07:50:15.959Z,4.93
2018-04-11T07:52:42.880Z,4.67
2018-04-11T07:55:09.072Z,5.03
2018-04-11T07:57:35.267Z,5.20
2018-04-11T08:00:01.386Z,5.10
2018-04-11T08:02:27.596Z,5.00
2018-04-11T08:04:53.779Z,5.17
2018-04-11T08:07:20.010Z,5.13
2018-04-11T08:09:46.957Z,5.50
2018-04-11T08:12:13.149Z,4.73
2018-04-11T08:14:39.351Z,4.93
2018-04-11T08:17:05.523Z,4.90
2018-04-11T08:19:31.868Z,4.87
2018-04-11T08:21:58.085Z,4.07
2018-04-11T08:24:24.288Z,4.43
2018-04-11T08:26:50.493Z,4.37
2018-04-11T08:29:17.462Z,4.60
2018-04-11T08:31:43.609Z,4.37
2018-04-11T08:34:09.835Z,4.70
2018-04-11T08:36:35.978Z,4.57
2018-04-11T08:39:02.189Z,4.50
2018-04-11T08:41:28.437Z,4.40
2018-04-11T08:43:55.324Z,5.03
2018-04-11T08:46:21.449Z,4.77
2018-04-11T08:48:47.639Z,4.33
2018-04-11T08:51:14.550Z,4.50
2018-04-11T08:53:40.750Z,3.60
2018-04-11T08:56:06.903Z,3.83
2018-04-11T08:58:33.111Z,4.17
2018-04-11T09:00:59.228Z,4.30
2018-04-11T09:03:26.112Z,3.80
2018-04-11T09:06:02.697Z,4.13
2018-04-11T09:08:28.820Z,4.27
2018-04-11T09:10:54.954Z,4.07
2018-04-11T09:13:21.096Z,4.33
2018-04-11T09:15:47.224Z,3.70
2018-04-11T09:18:13.434Z,3.30
2018-04-11T09:20:39.575Z,3.17
2018-04-11T09:23:06.541Z,3.57
2018-04-11T09:25:32.704Z,3.77
2018-04-11T09:27:58.860Z,3.70
2018-04-11T09:30:25.039Z,3.73
2018-04-11T09:32:51.167Z,3.43
2018-04-11T09:35:17.356Z,3.43
2018-04-11T09:37:44.296Z,3.17
2018-04-11T09:40:10.434Z,3.60
2018-04-11T09:42:36.603Z,3.30
2018-04-11T09:45:02.826Z,3.50
2018-04-11T09:47:28.977Z,3.80
2018-04-11T09:49:55.199Z,3.40
2018-04-11T09:52:21.521Z,3.40
2018-04-11T09:54:47.680Z,2.90
2018-04-11T09:57:13.903Z,3.77
2018-04-11T09:59:40.113Z,3.10
2018-04-11T10:02:06.357Z,3.10
2018-04-11T10:04:32.556Z,2.63
2018-04-11T10:06:58.782Z,2.73
2018-04-11T10:09:24.938Z,2.83
2018-04-11T10:11:51.861Z,2.53
2018-04-11T10:14:18.004Z,2.27
2018-04-11T10:16:44.386Z,2.43
2018-04-11T10:19:10.567Z,3.03
2018-04-11T10:21:37.589Z,2.70
2018-04-11T10:24:03.812Z,2.60
2018-04-11T10:26:29.987Z,2.57
2018-04-11T10:28:56.172Z,2.67
2018-04-11T10:31:22.300Z,2.77
2018-04-11T10:33:48.424Z,2.90
2018-04-11T10:36:14.586Z,3.27
2018-04-11T10:38:40.792Z,2.50
2018-04-11T10:41:06.963Z,2.43
2018-04-11T10:43:33.161Z,2.83
2018-04-11T10:46:00.081Z,2.80
2018-04-11T10:48:26.989Z,2.50
2018-04-11T10:50:53.172Z,2.60
2018-04-11T10:53:20.069Z,2.60
2018-04-11T10:55:46.203Z,2.40
2018-04-11T10:58:12.332Z,2.30
2018-04-11T11:00:38.527Z,2.27
2018-04-11T11:03:05.445Z,2.10
2018-04-11T11:05:31.635Z,2.33
2018-04-11T11:07:57.776Z,2.63
2018-04-11T11:10:23.912Z,2.40
2018-04-11T11:12:50.115Z,2.33
2018-04-11T11:15:16.980Z,2.47
2018-04-11T11:17:43.287Z,2.40
2018-04-11T11:20:09.476Z,2.20
2018-04-11T11:22:35.662Z,2.33
2018-04-11T11:25:02.557Z,2.23
2018-04-11T11:27:28.810Z,2.13
2018-04-11T11:29:54.981Z,2.00
2018-04-11T11:32:21.892Z,1.93
2018-04-11T11:34:48.036Z,2.03
2018-04-11T11:37:14.178Z,1.77
2018-04-11T11:39:40.317Z,1.73
2018-04-11T11:42:07.216Z,1.97
2018-04-11T11:44:33.349Z,2.20
2018-04-11T11:46:59.589Z,1.93
2018-04-11T11:49:26.536Z,1.93
2018-04-11T11:51:52.758Z,2.00
2018-04-11T11:54:19.021Z,1.90
2018-04-11T11:56:45.923Z,2.10
2018-04-11T11:59:12.770Z,1.90
2018-04-11T12:01:38.971Z,1.63
2018-04-11T12:04:05.121Z,1.80
2018-04-11T12:06:31.268Z,1.93
2018-04-11T12:08:57.429Z,1.67
2018-04-11T12:11:23.576Z,2.07
2018-04-11T12:13:49.727Z,1.67
2018-04-11T12:16:15.941Z,1.80
2018-04-11T12:18:43.983Z,1.70
2018-04-11T12:21:10.156Z,1.77
2018-04-11T12:23:36.393Z,1.37
2018-04-11T12:26:02.664Z,1.50
2018-04-11T12:28:29.657Z,1.80
2018-04-11T12:30:55.900Z,1.37
2018-04-11T12:33:22.085Z,1.93
2018-04-11T12:35:49.153Z,1.73
2018-04-11T12:38:15.300Z,1.60
2018-04-11T12:40:41.448Z,1.27
2018-04-11T12:43:07.612Z,1.47
2018-04-11T12:45:33.843Z,1.70
2018-04-11T12:48:00.069Z,1.30
2018-04-11T12:50:26.278Z,1.63
2018-04-11T12:52:52.424Z,1.63
2018-04-11T12:55:18.576Z,1.50
2018-04-11T12:57:44.775Z,1.33
2018-04-11T13:00:10.967Z,1.50
2018-04-11T13:02:37.869Z,1.60
2018-04-11T13:05:04.041Z,1.50
2018-04-11T13:07:30.199Z,1.27
2018-04-11T13:09:57.076Z,1.50
2018-04-11T13:12:23.272Z,1.87
2018-04-11T13:14:50.199Z,1.90
2018-04-11T13:17:16.343Z,1.67
2018-04-11T13:19:43.510Z,1.37
2018-04-11T13:22:10.402Z,1.63
2018-04-11T13:24:36.571Z,1.40
2018-04-11T13:27:02.724Z,1.53
2018-04-11T13:29:32.524Z,1.37
2018-04-11T13:31:58.649Z,1.17
2018-04-11T13:34:24.788Z,1.47
2018-04-11T13:36:51.769Z,1.03
2018-04-11T13:39:18.092Z,1.37
2018-04-11T13:41:44.991Z,1.33
2018-04-11T13:44:11.112Z,1.37
2018-04-11T13:46:37.291Z,2.17
2018-04-11T13:49:03.469Z,2.20
2018-04-11T13:51:29.625Z,2.33
2018-04-11T13:53:55.796Z,2.73
2018-04-11T13:56:22.037Z,3.03
2018-04-11T13:58:48.969Z,3.73
2018-04-11T14:01:15.110Z,3.60
2018-04-11T14:03:41.321Z,3.30
2018-04-11T14:06:07.468Z,2.90
2018-04-11T14:08:33.635Z,2.87
2018-04-11T14:11:00.589Z,3.00
2018-04-11T14:13:27.468Z,2.67
2018-04-11T14:15:53.973Z,2.90
2018-04-11T14:18:20.868Z,2.20
2018-04-11T14:20:47.043Z,2.97
2018-04-11T14:23:13.199Z,3.10
2018-04-11T14:25:39.429Z,2.57
2018-04-11T14:28:06.400Z,2.10
2018-04-11T14:30:32.621Z,2.47
2018-04-11T14:32:58.829Z,2.27
2018-04-11T14:35:25.164Z,1.80
2018-04-11T14:37:51.391Z,1.87
2018-04-11T14:40:17.836Z,1.90
2018-04-11T14:42:44.096Z,2.10
2018-04-11T14:45:17.872Z,1.80
2018-04-11T14:47:44.830Z,1.83
2018-04-11T14:50:11.033Z,2.40
2018-04-11T14:52:37.186Z,2.00
2018-04-11T14:55:03.389Z,1.73
2018-04-11T14:57:29.650Z,1.97
2018-04-11T14:59:55.856Z,2.00
2018-04-11T15:02:22.085Z,2.03
2018-04-11T15:04:48.221Z,1.93
2018-04-11T15:07:14.447Z,1.90
2018-04-11T15:09:40.661Z,1.90
2018-04-11T15:12:06.821Z,1.73
2018-04-11T15:14:33.000Z,1.70
2018-04-11T15:16:59.217Z,2.07
2018-04-11T15:19:26.012Z,1.80
2018-04-11T15:21:52.353Z,1.67
2018-04-11T15:24:18.596Z,2.07
2018-04-11T15:26:45.543Z,2.00
2018-04-11T15:29:11.760Z,2.47
2018-04-11T15:31:37.962Z,2.30
2018-04-11T15:34:04.256Z,2.17
2018-04-11T15:36:31.227Z,2.30
2018-04-11T15:38:57.457Z,2.30
2018-04-11T15:41:23.659Z,2.33
2018-04-11T15:43:49.885Z,2.50
2018-04-11T15:46:29.068Z,2.67
2018-04-11T15:48:55.236Z,2.40
2018-04-11T15:51:22.161Z,2.90
2018-04-11T15:53:48.345Z,2.77
2018-04-11T15:56:14.565Z,2.93
2018-04-11T15:58:40.772Z,3.17
2018-04-11T16:01:06.932Z,2.93
2018-04-11T16:03:33.157Z,3.10
2018-04-11T16:05:59.345Z,2.63
2018-04-11T16:08:25.577Z,2.70
2018-04-11T16:10:51.727Z,2.90
2018-04-11T16:13:17.941Z,3.10
2018-04-11T16:15:44.145Z,3.43
2018-04-11T16:18:10.336Z,2.90
2018-04-11T16:20:37.288Z,3.20
2018-04-11T16:23:04.317Z,3.20
2018-04-11T16:25:30.870Z,3.43
2018-04-11T16:27:57.049Z,3.60
2018-04-11T16:30:23.268Z,3.60
2018-04-11T16:32:49.516Z,3.43
2018-04-11T16:35:15.740Z,3.63
2018-04-11T16:37:42.880Z,3.63
2018-04-11T16:40:09.079Z,3.23
2018-04-11T16:42:35.353Z,4.03
2018-04-11T16:45:02.555Z,3.33
2018-04-11T16:47:28.766Z,3.87
2018-04-11T16:49:54.930Z,3.37
2018-04-11T16:52:21.188Z,3.37
2018-04-11T16:54:47.451Z,3.60
2018-04-11T16:57:13.643Z,3.60
2018-04-11T16:59:39.838Z,3.13
2018-04-11T17:02:06.795Z,3.50
2018-04-11T17:04:32.978Z,3.30
2018-04-11T17:06:59.824Z,3.20
2018-04-11T17:09:26.050Z,2.60
2018-04-11T17:11:52.239Z,2.83
2018-04-11T17:14:18.510Z,3.20
2018-04-11T17:16:45.051Z,2.73
2018-04-11T17:19:11.325Z,2.90
2018-04-11T17:21:50.736Z,2.80
2018-04-11T17:24:29.373Z,2.90
2018-04-11T17:27:08.007Z,2.87
2018-04-11T17:32:42.066Z,2.87
2018-04-11T17:35:08.401Z,2.90
2018-04-11T17:37:34.740Z,2.70
2018-04-11T17:40:01.134Z,2.87
2018-04-11T17:42:28.656Z,2.70
2018-04-11T17:44:55.050Z,2.97
2018-04-11T17:47:21.340Z,3.37
2018-04-11T17:49:47.745Z,3.27
2018-04-11T17:52:14.045Z,3.00
2018-04-11T17:54:40.599Z,3.27
2018-04-11T17:57:07.085Z,3.33
2018-04-11T17:59:34.479Z,3.13
2018-04-11T18:02:00.676Z,3.73
2018-04-11T18:04:27.685Z,4.43
2018-04-11T18:06:54.665Z,3.80
2018-04-11T18:09:20.854Z,4.07
2018-04-11T18:11:47.920Z,3.90
2018-04-11T18:14:14.209Z,4.07
2018-04-11T18:16:40.883Z,3.70
2018-04-11T18:19:07.530Z,4.53
2018-04-11T18:21:34.903Z,4.03
2018-04-11T18:24:01.239Z,3.63
2018-04-11T18:26:27.521Z,4.10
2018-04-11T18:28:54.774Z,3.80
2018-04-11T18:31:21.134Z,4.33
2018-04-11T18:33:47.356Z,4.10
2018-04-11T18:36:13.477Z,3.90
2018-04-11T18:38:39.802Z,4.10
2018-04-11T18:41:06.053Z,3.83
2018-04-11T18:43:32.388Z,3.73
2018-04-11T18:45:58.748Z,4.00
2018-04-11T18:48:25.232Z,3.70
2018-04-11T18:50:52.290Z,3.57
2018-04-11T18:53:18.458Z,3.73
2018-04-11T18:55:44.878Z,3.40
2018-04-11T18:58:11.290Z,3.73
2018-04-11T19:00:37.555Z,3.03
2018-04-11T19:03:03.720Z,3.53
2018-04-11T19:05:29.933Z,3.40
2018-04-11T19:07:56.194Z,3.03
2018-04-11T19:10:23.796Z,3.10
2018-04-11T19:12:50.048Z,3.03
2018-04-11T19:15:16.194Z,3.53
2018-04-11T19:17:42.427Z,3.33
2018-04-11T19:20:09.348Z,3.43
2018-04-11T19:22:35.901Z,3.47
2018-04-11T19:25:02.271Z,3.27
2018-04-11T19:27:29.390Z,3.40
2018-04-11T19:29:55.788Z,3.40
2018-04-11T19:32:22.080Z,2.97
2018-04-11T19:34:48.468Z,2.83
2018-04-11T19:37:15.060Z,3.10
2018-04-11T19:39:41.406Z,2.80
2018-04-11T19:42:08.414Z,2.90
2018-04-11T19:44:34.825Z,2.73
2018-04-11T19:47:02.156Z,2.80
2018-04-11T19:49:29.402Z,2.53
2018-04-11T19:51:55.667Z,2.80
2018-04-11T19:54:21.910Z,2.70
2018-04-11T19:56:48.115Z,2.80
2018-04-11T19:59:14.594Z,2.50
2018-04-11T20:01:41.939Z,2.70
2018-04-11T20:04:09.357Z,2.80
2018-04-11T20:06:36.590Z,2.90
2018-04-11T20:09:03.251Z,2.97
2018-04-11T20:11:30.542Z,3.13
2018-04-11T20:13:59.331Z,2.93
2018-04-11T20:16:29.962Z,2.60
2018-04-11T20:18:56.524Z,2.73
2018-04-11T20:21:23.704Z,3.00
2018-04-11T20:23:50.190Z,2.80
2018-04-11T20:26:17.935Z,3.23
2018-04-11T20:28:44.493Z,3.77
2018-04-11T20:31:10.894Z,3.20
2018-04-11T20:33:37.255Z,3.60
2018-04-11T20:36:03.635Z,3.53
2018-04-11T20:38:30.455Z,3.63
2018-04-11T20:40:56.783Z,2.83
2018-04-11T20:43:24.300Z,3.57
2018-04-11T20:45:52.646Z,3.87
2018-04-11T20:48:18.970Z,3.70
2018-04-11T20:50:45.386Z,4.30
2018-04-11T20:53:12.568Z,4.53
2018-04-11T20:55:40.013Z,4.93
2018-04-11T20:58:07.201Z,4.83
2018-04-11T21:00:34.285Z,4.67
2018-04-11T21:03:01.004Z,4.03
2018-04-11T21:05:27.221Z,3.97
2018-04-11T21:07:53.810Z,3.77
2018-04-11T21:10:19.921Z,3.60
2018-04-11T21:12:46.154Z,3.50
2018-04-11T21:15:12.849Z,3.40
2018-04-11T21:17:39.009Z,3.00
2018-04-11T21:20:05.241Z,3.60
2018-04-11T21:22:31.485Z,3.20
2018-04-11T21:24:58.423Z,3.87
2018-04-11T21:27:24.764Z,3.80
2018-04-11T21:29:50.990Z,3.53
2018-04-11T21:32:17.930Z,4.03
2018-04-11T21:34:44.957Z,3.90
2018-04-11T21:37:11.168Z,3.70
2018-04-11T21:39:37.361Z,3.53
2018-04-11T21:42:03.613Z,3.30
2018-04-11T21:44:30.530Z,3.50
2018-04-11T21:46:56.842Z,3.37
2018-04-11T21:49:22.965Z,3.33
2018-04-11T21:51:49.232Z,3.17
2018-04-11T21:54:15.404Z,3.33
2018-04-11T21:56:41.630Z,3.20
2018-04-11T21:59:08.050Z,3.27
2018-04-11T22:01:36.797Z,3.27
2018-04-11T22:04:03.194Z,3.10
2018-04-11T22:06:29.427Z,3.37
2018-04-11T22:08:56.517Z,3.30
2018-04-11T22:11:22.728Z,3.10
2018-04-11T22:13:48.929Z,3.33
2018-04-11T22:16:15.173Z,3.63
2018-04-11T22:18:42.093Z,3.20
2018-04-11T22:21:08.261Z,3.57
2018-04-11T22:23:34.441Z,3.23
2018-04-11T22:26:01.046Z,3.33
2018-04-11T22:28:27.614Z,3.23
2018-04-11T22:30:53.798Z,3.17
2018-04-11T22:33:19.980Z,3.23
2018-04-11T22:35:46.148Z,3.40
2018-04-11T22:38:12.333Z,2.83
2018-04-11T22:40:38.543Z,3.30
2018-04-11T22:43:04.849Z,2.97
2018-04-11T22:45:31.895Z,3.27
2018-04-11T22:47:58.367Z,3.30
2018-04-11T22:50:24.509Z,3.50
2018-04-11T22:52:50.704Z,3.07
2018-04-11T22:55:17.273Z,3.53
2018-04-11T22:57:44.231Z,3.20
2018-04-11T23:00:10.388Z,3.50
2018-04-11T23:02:36.471Z,2.83
2018-04-11T23:05:02.771Z,3.17
2018-04-11T23:07:29.008Z,3.37
2018-04-11T23:09:55.200Z,3.30
2018-04-11T23:12:22.084Z,3.00
2018-04-11T23:14:48.324Z,3.40
2018-04-11T23:17:14.782Z,2.93
2018-04-11T23:19:41.013Z,3.40
2018-04-11T23:22:07.716Z,2.90
2018-04-11T23:24:34.790Z,3.20
2018-04-11T23:27:03.221Z,2.90
2018-04-11T23:29:29.547Z,3.00
2018-04-11T23:31:56.524Z,2.90
2018-04-11T23:34:22.785Z,2.97
2018-04-11T23:36:49.871Z,3.03
2018-04-11T23:39:16.065Z,3.80
2018-04-11T23:41:43.078Z,3.37
2018-04-11T23:44:09.304Z,3.47
2018-04-11T23:46:36.289Z,2.97
2018-04-11T23:49:03.272Z,3.00
2018-04-11T23:51:29.450Z,3.57
2018-04-11T23:53:55.621Z,2.60
2018-04-11T23:56:21.806Z,2.77
2018-04-11T23:58:48.003Z,2.87
